<<    August 2011    >>
Datum    Temp.       Tempmin      Tempmax    Taup.       Taup.min      Taup.max    Feuchte    Feuchtemin    Feuchtemax    Druck    Druckmin    Druckmax    Regen    Wind    Benmax  
  01.08.2011  17,5    9,2    05:54    26,0    17:20  9,5    6,9    03:05    12,1    23:59  63,1    37    16:37    91    07:18  1016,1    1013    18:47    1018    06:47  0,0  1,2  11,2  
  02.08.2011  22,8    15,2    06:34    30,7    16:21  11,7    9,3    20:14    14,0    10:42  53,1    30    16:23    82    07:16  1014,9    1012    18:46    1017    07:03  0,0  1,8  15,5  
  03.08.2011  20,6    18,8    23:59    22,8    10:03  15,4    10,4    00:04    20,4    13:21  74,0    46    00:00    96    12:50  1012,7    1011    09:01    1014    00:00  2,1  1,2  15,8  
  04.08.2011  21,5    15,5    06:27    29,9    15:48  15,4    10,4    16:06    20,0    20:08  72,9    32    15:28    96    07:13  1012,5    1009    18:46    1015    05:46  1,8  1,4  12,6  
  05.08.2011  20,4    17,5    08:24    24,8    17:04  15,5    12,4    17:17    18,2    06:54  76,2    47    17:11    98    00:28  1011,0    1009    19:46    1012    00:00  0,9  2,5  13,7  
  06.08.2011  20,2    17,1    23:54    24,4    14:51  17,2    13,4    00:07    19,9    17:23  83,2    68    15:20    98    23:59  1004,3    1000    23:59    1010    00:16  3,7  2,0  15,8  
  07.08.2011  18,3    14,4    06:19    22,8    15:54  10,9    5,8    16:37    16,8    00:00  67,1    35    16:23    98    00:00  1005,1    1000    00:00    1007    10:15  1,2  2,9  20,2  
  08.08.2011  15,6    13,6    07:50    19,8    15:40  11,3    7,7    00:12    15,3    10:19  76,7    49    16:17    98    05:55  1005,7    1002    06:15    1012    22:45  5,7  3,3  23,8  
  09.08.2011  15,4    12,5    23:59    18,7    16:57  9,7    5,7    20:33    14,1    10:21  69,9    45    17:34    95    08:40  1016,7    1011    02:15    1024    22:00  3,7  4,8  21,2  
  10.08.2011  16,8    10,8    06:10    23,3    16:17  6,9    4,6    19:26    9,1    09:33  55,4    32    17:05    82    07:08  1023,3    1017    23:14    1027    10:29  0,0  2,9  15,1  
  11.08.2011  21,3    17,6    00:40    26,0    16:51  5,9    2,9    07:07    7,7    21:40  37,4    27    13:38    49    04:56  1013,6    1010    18:59    1018    00:00  0,0  3,0  16,2  
  12.08.2011  19,0    16,8    06:50    22,2    16:22  13,8    7,4    00:14    15,7    07:59  72,4    46    00:00    90    07:00  1010,0    1009    03:59    1012    00:00  0,0  2,3  15,1  
  13.08.2011  19,3    16,8    07:03    23,7    14:07  15,1    11,8    14:57    17,5    21:05  78,1    49    14:14    92    23:39  1008,9    1007    13:59    1011    01:14  0,9  0,8  9,4  
  14.08.2011  18,4    16,6    23:53    19,7    18:49  16,5    13,6    20:18    18,9    10:56  89,1    71    19:49    98    07:13  1006,0    1002    08:58    1010    22:28  22,0  2,3  19,8  
  15.08.2011  18,0    13,9    06:10    23,4    13:42  11,9    8,9    18:47    14,4    07:11  70,0    43    17:41    97    06:38  1013,7    1009    00:13    1019    23:43  0,0  1,9  13,7  
  16.08.2011  18,4    14,3    06:39    24,4    16:28  11,2    6,2    18:35    16,1    10:53  66,5    33    16:38    96    09:36  1017,5    1016    17:43    1019    00:28  0,0  1,3  17,6  
  17.08.2011  21,0    16,8    06:43    27,5    15:29  12,7    10,6    00:37    16,7    20:52  60,7    39    15:35    86    23:43  1015,1    1013    16:13    1017    00:00  0,0  2,1  11,9  
  18.08.2011  22,1    15,9    06:30    31,1    16:46  15,8    12,4    19:48    18,6    23:59  72,1    35    16:12    98    23:59  1011,5    1007    17:16    1015    01:01  13,2  1,7  28,4  
  19.08.2011  18,8    14,5    23:38    21,9    17:18  14,5    7,7    18:26    19,6    05:28  79,6    43    17:23    98    00:00  1014,7    1009    01:16    1021    22:45  10,5  3,1  16,9  
  20.08.2011  19,3    12,9    04:44    27,3    16:21  11,8    9,0    18:54    14,4    10:23  66,1    35    16:05    93    07:04  1019,6    1016    23:45    1022    06:15  0,0  1,2  12,2  
  21.08.2011  22,4    16,7    03:31    30,6    15:45  15,4    11,0    06:34    19,0    11:56  65,9    41    16:34    89    10:41  1014,2    1011    19:15    1017    00:00  0,9  1,5  16,6  
  22.08.2011  20,6    18,4    23:59    23,5    00:00  15,8    13,2    20:15    19,0    00:01  74,6    61    18:17    90    15:07  1016,3    1014    00:00    1018    09:30  0,0  1,4  11,9  
  23.08.2011  21,6    16,8    06:33    27,7    16:54  17,4    14,9    00:00    20,0    11:46  78,9    53    18:56    98    05:42  1011,7    1009    19:29    1016    02:45  4,9  0,9  31,0  
  24.08.2011  21,6    17,7    23:57    28,4    13:23  15,9    12,4    13:52    18,8    08:20  72,2    39    13:52    94    07:33  1012,6    1011    10:44    1014    23:59  0,0  1,3  15,8  
  25.08.2011  20,1    15,1    06:25    25,8    14:26  15,7    12,7    02:22    18,7    23:00  76,7    53    14:47    92    07:14  1012,3    1009    17:59    1015    00:44  0,0  0,8  12,6  
  26.08.2011  21,1    15,9    23:51    28,7    13:03  17,1    11,2    14:41    19,2    17:43  80,8    41    14:10    98    23:59  1004,7    1001    11:14    1010    00:59  5,7  1,8  18,0  
  27.08.2011  15,8    13,0    21:53    20,9    15:22  13,5    8,0    15:32    16,8    12:23  87,5    46    15:29    98    00:00  1010,9    1006    00:00    1016    21:28  10,3  1,7  18,0  
  28.08.2011  15,3    11,5    06:32    19,3    16:58  9,7    6,2    18:35    13,5    09:23  72,2    44    16:47    97    07:32  1016,6    1015    00:00    1019    10:43  0,0  1,8  15,8  
  29.08.2011  15,1    11,4    06:52    19,7    14:05  7,7    4,2    15:11    11,1    08:18  63,6    37    15:10    87    07:12  1015,6    1014    05:58    1017    21:13  0,0  3,1  21,2  
  30.08.2011  14,7    11,7    00:28    18,9    15:47  7,3    6,0    00:00    9,0    23:20  61,7    45    15:22    73    23:59  1016,1    1015    03:28    1017    00:00  0,0  1,2  13,7  
  31.08.2011  15,2    9,4    06:47    21,2    15:13  8,1    5,6    18:31    10,9    11:01  65,7    39    15:55    90    07:54  1015,0    1013    17:12    1017    10:57  0,0  1,3  11,9  
 
  Gesamt  19,0  9,2            31,1            12,8  2,9            20,4            70,4  27            98            1012,9  1000            1027            87,3  2,0  31,0  
 
  Mittelwert  19,0  14,8            24,4            12,8  9,1            16,0            70,4  43,3            91,5            1012,9  1009,7            1016,0            2,8  2,0  16,5  
  Minimum  14,7  9,2            18,7            5,9  2,9            7,7            37,4  27,0            49,0            1004,3  1000,0            1007,0            0,0  0,8  9,4  
  Maximum  22,8  18,8            31,1            17,4  14,9            20,4            89,1  71,0            98,0            1023,3  1017,0            1027,0            22,0  4,8  31,0  

  Heie Tage    Tmax >=30C     3  
  Sommertage    Tmax >=25C     12  
  Warme Tage    Tmax >=20C     25  
  Kalte Tage    Tmax  <10C     0  
  Frosttage    Tmin  <0C     0  
  Eistage    Tmax  <0C     0  
  Regentage > 0 mm    15  
  Regentage > 2 mm    10  
  Regentage > 10 mm    4  
  Regentage > 20 mm    1